createdAt,value
2022-11-23T00:01:26.639Z,9.90
2022-11-23T00:03:56.298Z,9.91
2022-11-23T00:06:24.456Z,9.70
2022-11-23T00:08:52.123Z,9.68
2022-11-23T00:11:19.476Z,9.54
2022-11-23T00:13:46.550Z,9.59
2022-11-23T00:16:18.914Z,9.57
2022-11-23T00:18:46.447Z,9.74
2022-11-23T00:21:15.959Z,9.90
2022-11-23T00:23:43.580Z,9.93
2022-11-23T00:26:10.450Z,10.15
2022-11-23T00:28:39.879Z,10.14
2022-11-23T00:31:07.539Z,10.07
2022-11-23T00:33:34.920Z,10.10
2022-11-23T00:36:04.444Z,9.93
2022-11-23T00:38:31.550Z,9.98
2022-11-23T00:41:03.899Z,10.01
2022-11-23T00:43:31.199Z,10.01
2022-11-23T00:46:15.884Z,9.97
2022-11-23T00:48:44.020Z,9.82
2022-11-23T00:51:13.333Z,9.79
2022-11-23T00:53:40.255Z,9.62
2022-11-23T00:56:07.443Z,9.73
2022-11-23T00:58:34.795Z,9.74
2022-11-23T01:01:12.906Z,9.97
2022-11-23T01:03:42.155Z,9.81
2022-11-23T01:06:16.449Z,10.12
2022-11-23T01:08:43.463Z,10.17
2022-11-23T01:11:12.446Z,10.13
2022-11-23T01:13:41.331Z,10.18
2022-11-23T01:16:13.636Z,10.14
2022-11-23T01:18:40.375Z,10.16
2022-11-23T01:21:07.516Z,10.07
2022-11-23T01:23:34.329Z,10.08
2022-11-23T01:26:08.581Z,10.04
2022-11-23T01:28:35.975Z,10.04
2022-11-23T01:31:14.794Z,10.05
2022-11-23T01:33:41.967Z,9.97
2022-11-23T01:36:13.553Z,9.98
2022-11-23T01:38:41.432Z,9.64
2022-11-23T01:41:10.909Z,9.81
2022-11-23T01:43:37.964Z,9.67
2022-11-23T01:46:05.451Z,9.77
2022-11-23T01:48:43.112Z,9.78
2022-11-23T01:51:15.106Z,9.70
2022-11-23T01:53:43.175Z,9.76
2022-11-23T01:56:15.342Z,9.78
2022-11-23T01:58:47.727Z,9.86
2022-11-23T02:01:14.659Z,9.88
2022-11-23T02:03:43.724Z,9.80
2022-11-23T02:06:16.569Z,9.95
2022-11-23T02:08:44.236Z,9.91
2022-11-23T02:11:13.319Z,9.92
2022-11-23T02:13:40.980Z,9.84
2022-11-23T02:16:07.765Z,9.76
2022-11-23T02:18:37.814Z,9.69
2022-11-23T02:21:05.382Z,9.72
2022-11-23T02:23:35.044Z,9.68
2022-11-23T02:26:06.626Z,9.69
2022-11-23T02:28:39.218Z,9.83
2022-11-23T02:31:05.862Z,9.96
2022-11-23T02:33:32.480Z,9.98
2022-11-23T02:36:02.172Z,9.91
2022-11-23T02:38:32.664Z,9.91
2022-11-23T02:40:59.320Z,9.92
2022-11-23T02:43:26.372Z,9.95
2022-11-23T02:45:56.387Z,9.97
2022-11-23T02:48:23.195Z,9.99
2022-11-23T02:50:50.194Z,9.55
2022-11-23T02:53:17.770Z,10.09
2022-11-23T02:55:44.884Z,10.23
2022-11-23T02:58:11.815Z,10.41
2022-11-23T03:00:38.629Z,10.50
2022-11-23T03:03:05.379Z,10.61
2022-11-23T03:05:32.223Z,10.61
2022-11-23T03:07:59.117Z,10.73
2022-11-23T03:10:25.795Z,10.83
2022-11-23T03:12:55.547Z,10.91
2022-11-23T03:15:22.810Z,11.16
2022-11-23T03:17:49.583Z,11.26
2022-11-23T03:20:16.726Z,11.33
2022-11-23T03:22:43.509Z,11.51
2022-11-23T03:25:10.747Z,11.63
2022-11-23T03:27:38.820Z,11.72
2022-11-23T03:30:07.463Z,11.78
2022-11-23T03:32:34.697Z,11.84
2022-11-23T03:35:02.059Z,11.82
2022-11-23T03:37:28.771Z,11.82
2022-11-23T03:39:55.376Z,11.94
2022-11-23T03:42:22.104Z,12.01
2022-11-23T03:44:48.748Z,11.96
2022-11-23T03:47:15.363Z,12.07
2022-11-23T03:49:42.057Z,12.05
2022-11-23T03:52:08.704Z,12.01
2022-11-23T03:54:35.353Z,11.77
2022-11-23T03:57:02.196Z,12.04
2022-11-23T03:59:28.954Z,12.05
2022-11-23T04:01:55.712Z,12.02
2022-11-23T04:04:22.451Z,12.09
2022-11-23T04:06:49.111Z,12.18
2022-11-23T04:09:15.791Z,12.29
2022-11-23T04:11:42.475Z,12.08
2022-11-23T04:14:09.103Z,12.11
2022-11-23T04:16:35.733Z,12.11
2022-11-23T04:19:02.464Z,12.11
2022-11-23T04:21:29.138Z,12.17
2022-11-23T04:23:55.788Z,12.03
2022-11-23T04:26:22.608Z,12.14
2022-11-23T04:28:49.276Z,12.11
2022-11-23T04:31:16.082Z,11.99
2022-11-23T04:33:42.887Z,12.23
2022-11-23T04:36:09.624Z,12.14
2022-11-23T04:38:36.877Z,12.19
2022-11-23T04:41:03.693Z,12.23
2022-11-23T04:43:31.946Z,12.20
2022-11-23T04:45:58.628Z,12.21
2022-11-23T04:48:25.439Z,12.09
2022-11-23T04:50:55.625Z,12.13
2022-11-23T04:53:22.782Z,12.15
2022-11-23T04:55:49.481Z,12.17
2022-11-23T04:58:16.127Z,12.23
2022-11-23T05:00:42.946Z,12.21
2022-11-23T05:03:09.736Z,12.24
2022-11-23T05:05:40.626Z,12.33
2022-11-23T05:08:08.315Z,12.36
2022-11-23T05:10:35.081Z,12.29
2022-11-23T05:13:01.782Z,12.31
2022-11-23T05:15:28.569Z,12.33
2022-11-23T05:18:04.669Z,12.53
2022-11-23T05:20:31.549Z,12.33
2022-11-23T05:22:58.255Z,12.31
2022-11-23T05:25:25.849Z,12.29
2022-11-23T05:27:52.597Z,12.38
2022-11-23T05:30:19.890Z,12.34
2022-11-23T05:32:46.675Z,12.19
2022-11-23T05:35:14.381Z,12.11
2022-11-23T05:37:41.287Z,12.13
2022-11-23T05:40:09.252Z,12.04
2022-11-23T05:42:35.884Z,11.94
2022-11-23T05:45:05.322Z,11.90
2022-11-23T05:47:34.282Z,11.90
2022-11-23T05:50:00.949Z,11.82
2022-11-23T05:52:27.684Z,12.13
2022-11-23T05:54:54.416Z,12.26
2022-11-23T05:57:22.523Z,12.04
2022-11-23T05:59:49.902Z,11.74
2022-11-23T06:02:16.683Z,12.18
2022-11-23T06:04:43.518Z,12.40
2022-11-23T06:07:10.193Z,12.24
2022-11-23T06:09:36.920Z,12.16
2022-11-23T06:12:04.004Z,12.27
2022-11-23T06:14:30.675Z,12.33
2022-11-23T06:16:57.409Z,12.33
2022-11-23T06:19:24.036Z,11.88
2022-11-23T06:21:50.822Z,12.29
2022-11-23T06:24:17.570Z,12.26
2022-11-23T06:26:44.223Z,12.24
2022-11-23T06:29:10.897Z,12.28
2022-11-23T06:31:37.623Z,12.27
2022-11-23T06:34:04.258Z,12.36
2022-11-23T06:36:30.941Z,12.45
2022-11-23T06:38:57.647Z,12.37
2022-11-23T06:41:29.409Z,12.35
2022-11-23T06:43:58.807Z,12.34
2022-11-23T06:46:25.447Z,12.30
2022-11-23T06:48:52.103Z,12.38
2022-11-23T06:51:18.797Z,12.44
2022-11-23T06:53:45.465Z,12.47
2022-11-23T06:56:12.175Z,12.46
2022-11-23T06:58:39.012Z,12.41
2022-11-23T07:01:07.799Z,12.52
2022-11-23T07:03:35.337Z,12.53
2022-11-23T07:06:10.191Z,12.42
2022-11-23T07:08:43.243Z,12.27
2022-11-23T07:11:11.946Z,12.38
2022-11-23T07:13:39.602Z,12.34
2022-11-23T07:16:07.055Z,12.36
2022-11-23T07:18:33.829Z,12.51
2022-11-23T07:21:00.727Z,12.66
2022-11-23T07:23:27.407Z,12.71
2022-11-23T07:25:54.205Z,12.85
2022-11-23T07:28:20.853Z,12.93
2022-11-23T07:30:50.813Z,12.93
2022-11-23T07:33:17.517Z,13.24
2022-11-23T07:35:44.238Z,13.28
2022-11-23T07:38:10.941Z,13.12
2022-11-23T07:40:38.599Z,13.05
2022-11-23T07:43:06.992Z,12.82
2022-11-23T07:45:34.236Z,13.05
2022-11-23T07:48:09.161Z,13.09
2022-11-23T07:50:37.873Z,13.21
2022-11-23T07:53:06.396Z,13.35
2022-11-23T07:55:33.857Z,13.65
2022-11-23T07:58:00.552Z,13.77
2022-11-23T08:00:29.139Z,13.91
2022-11-23T08:03:26.034Z,14.04
2022-11-23T08:05:46.213Z,14.20
2022-11-23T08:08:13.061Z,14.19
2022-11-23T08:10:44.411Z,14.23
2022-11-23T08:13:14.243Z,14.23
2022-11-23T08:15:40.945Z,14.31
2022-11-23T08:18:07.580Z,14.46
2022-11-23T08:20:34.379Z,14.41
2022-11-23T08:23:01.069Z,14.35
2022-11-23T08:25:29.805Z,14.42
2022-11-23T08:28:04.307Z,14.37
2022-11-23T08:30:32.366Z,14.40
2022-11-23T08:33:04.848Z,14.43
2022-11-23T08:35:34.345Z,14.49
2022-11-23T08:38:01.563Z,14.47
2022-11-23T08:40:28.435Z,14.43
2022-11-23T08:42:55.517Z,14.47
2022-11-23T08:45:22.387Z,14.49
2022-11-23T08:47:49.135Z,14.53
2022-11-23T08:50:15.902Z,14.59
2022-11-23T08:52:42.764Z,14.67
2022-11-23T08:55:10.297Z,14.64
2022-11-23T08:57:37.043Z,14.65
2022-11-23T09:00:05.693Z,14.65
2022-11-23T09:02:32.361Z,14.62
2022-11-23T09:04:59.125Z,14.56
2022-11-23T09:07:25.796Z,14.49
2022-11-23T09:09:52.519Z,14.53
2022-11-23T09:12:19.220Z,14.39
2022-11-23T09:14:45.894Z,14.20
2022-11-23T09:17:12.659Z,14.02
2022-11-23T09:19:39.358Z,13.65
2022-11-23T09:22:06.061Z,13.39
2022-11-23T09:24:33.072Z,13.24
2022-11-23T09:26:59.959Z,13.07
2022-11-23T09:29:26.844Z,13.06
2022-11-23T09:31:53.528Z,12.98
2022-11-23T09:34:20.258Z,12.73
2022-11-23T09:36:47.738Z,12.77
2022-11-23T09:39:14.686Z,12.70
2022-11-23T09:42:13.519Z,12.69
2022-11-23T09:45:17.420Z,12.66
2022-11-23T09:48:02.726Z,12.59
2022-11-23T09:50:43.651Z,12.58
2022-11-23T09:53:15.321Z,12.66
2022-11-23T09:55:49.321Z,12.66
2022-11-23T09:58:18.626Z,12.60
2022-11-23T10:01:00.021Z,12.69
2022-11-23T10:03:28.540Z,12.78
2022-11-23T10:06:07.405Z,12.81
2022-11-23T10:08:41.705Z,12.91
2022-11-23T10:11:20.489Z,12.98
2022-11-23T10:14:14.752Z,12.99
2022-11-23T10:17:19.318Z,13.09
2022-11-23T10:20:08.216Z,13.18
2022-11-23T10:22:48.204Z,13.19
2022-11-23T10:25:23.639Z,13.36
2022-11-23T10:27:54.670Z,13.43
2022-11-23T10:30:21.402Z,13.50
2022-11-23T10:33:04.491Z,13.39
2022-11-23T10:35:35.173Z,13.44
2022-11-23T10:38:18.463Z,13.51
2022-11-23T10:40:51.801Z,13.41
2022-11-23T10:43:25.459Z,13.43
2022-11-23T10:45:55.991Z,13.47
2022-11-23T10:48:36.772Z,13.54
2022-11-23T10:51:28.937Z,13.48
2022-11-23T10:54:05.478Z,13.46
2022-11-23T10:56:34.293Z,13.43
2022-11-23T10:59:01.554Z,13.43
2022-11-23T11:01:30.348Z,13.51
2022-11-23T11:04:04.228Z,13.47
2022-11-23T11:06:34.718Z,13.54
2022-11-23T11:09:18.196Z,13.63
2022-11-23T11:11:52.230Z,13.64
2022-11-23T11:14:23.427Z,13.67
2022-11-23T11:16:55.293Z,13.64
2022-11-23T11:19:36.263Z,13.65
2022-11-23T11:22:24.681Z,13.68
2022-11-23T11:24:51.637Z,13.55
2022-11-23T11:27:22.413Z,13.47
2022-11-23T11:29:53.498Z,13.56
2022-11-23T11:32:39.896Z,13.67
2022-11-23T11:35:27.819Z,13.71
2022-11-23T11:38:22.993Z,13.77
2022-11-23T11:40:52.162Z,13.83
2022-11-23T11:43:37.910Z,13.87
2022-11-23T11:46:29.066Z,13.80
2022-11-23T11:48:59.625Z,13.71
2022-11-23T11:51:47.334Z,13.78
2022-11-23T11:54:16.792Z,13.77
2022-11-23T11:56:46.627Z,13.71
2022-11-23T11:59:20.388Z,13.69
2022-11-23T12:02:24.483Z,13.80
2022-11-23T12:04:55.795Z,13.82
2022-11-23T12:07:27.941Z,13.84
2022-11-23T12:10:02.030Z,13.77
2022-11-23T12:12:30.098Z,13.81
2022-11-23T12:14:57.394Z,13.83
2022-11-23T12:17:45.943Z,13.82
2022-11-23T12:20:30.868Z,13.76
2022-11-23T12:23:03.253Z,13.77
2022-11-23T12:25:40.757Z,13.80
2022-11-23T12:28:28.563Z,13.88
2022-11-23T12:31:07.218Z,13.80
2022-11-23T12:34:02.789Z,13.77
2022-11-23T12:36:35.435Z,13.75
2022-11-23T12:39:30.247Z,13.89
2022-11-23T12:42:18.751Z,13.92
2022-11-23T12:45:17.824Z,13.91
2022-11-23T12:47:50.171Z,14.03
2022-11-23T12:50:17.795Z,14.04
2022-11-23T12:53:03.400Z,14.07
2022-11-23T12:56:02.312Z,14.17
2022-11-23T12:58:31.431Z,14.28
2022-11-23T13:01:04.867Z,14.26
2022-11-23T13:03:56.451Z,14.16
2022-11-23T13:06:49.992Z,14.25
2022-11-23T13:09:51.204Z,14.35
2022-11-23T13:12:25.131Z,14.33
2022-11-23T13:15:06.753Z,14.31
2022-11-23T13:18:01.020Z,14.36
2022-11-23T13:20:51.735Z,14.36
2022-11-23T13:23:21.776Z,14.36
2022-11-23T13:26:15.417Z,14.48
2022-11-23T13:28:42.516Z,14.51
2022-11-23T13:31:15.796Z,14.43
2022-11-23T13:33:45.683Z,14.39
2022-11-23T13:37:11.217Z,14.51
2022-11-23T13:39:51.926Z,14.47
2022-11-23T13:42:19.010Z,14.46
2022-11-23T13:44:45.671Z,14.51
2022-11-23T13:47:12.326Z,14.52
2022-11-23T13:49:51.180Z,14.48
2022-11-23T13:52:24.010Z,14.45
2022-11-23T13:55:13.983Z,14.57
2022-11-23T13:57:43.482Z,14.56
2022-11-23T14:00:44.451Z,14.64
2022-11-23T14:03:42.457Z,14.60
2022-11-23T14:06:33.840Z,14.53
2022-11-23T14:09:07.082Z,14.54
2022-11-23T14:11:49.663Z,14.62
2022-11-23T14:14:21.616Z,14.52
2022-11-23T14:17:14.674Z,14.61
2022-11-23T14:20:11.718Z,14.69
2022-11-23T14:22:57.021Z,14.64
2022-11-23T14:25:32.749Z,14.56
2022-11-23T14:28:17.514Z,14.56
2022-11-23T14:31:07.675Z,14.42
2022-11-23T14:33:39.722Z,14.49
2022-11-23T14:36:17.627Z,14.56
2022-11-23T14:39:15.225Z,14.52
2022-11-23T14:41:42.929Z,14.57
2022-11-23T14:44:14.600Z,14.63
2022-11-23T14:47:08.758Z,14.49
2022-11-23T14:49:36.991Z,14.46
2022-11-23T14:52:05.719Z,14.34
2022-11-23T14:54:33.413Z,14.45
2022-11-23T14:57:03.527Z,14.41
2022-11-23T14:59:41.829Z,14.32
2022-11-23T15:02:19.132Z,14.22
2022-11-23T15:05:03.376Z,14.09
2022-11-23T15:07:52.453Z,14.10
2022-11-23T15:10:50.939Z,14.20
2022-11-23T15:13:22.099Z,14.05
2022-11-23T15:15:55.232Z,14.07
2022-11-23T15:18:33.235Z,14.03
2022-11-23T15:21:05.634Z,13.93
2022-11-23T15:23:41.187Z,14.05
2022-11-23T15:29:37.447Z,13.98
2022-11-23T15:32:32.196Z,13.92
2022-11-23T15:35:07.711Z,13.90
2022-11-23T15:37:44.680Z,14.04
2022-11-23T15:40:16.366Z,14.02
2022-11-23T15:42:44.963Z,13.91
2022-11-23T15:45:34.746Z,13.91
2022-11-23T15:48:10.758Z,13.75
2022-11-23T15:51:14.653Z,13.78
2022-11-23T15:53:52.067Z,13.75
2022-11-23T15:56:24.319Z,13.62
2022-11-23T15:58:53.381Z,13.50
2022-11-23T16:01:21.093Z,13.46
2022-11-23T16:03:55.646Z,13.39
2022-11-23T16:06:39.179Z,13.36
2022-11-23T16:12:26.006Z,13.34
2022-11-23T16:15:32.655Z,13.33
2022-11-23T16:18:00.775Z,13.28
2022-11-23T16:20:29.508Z,13.28
2022-11-23T16:22:59.337Z,13.20
2022-11-23T16:25:34.500Z,13.20
2022-11-23T16:28:17.083Z,13.12
2022-11-23T16:30:46.537Z,13.11
2022-11-23T16:33:18.803Z,13.13
2022-11-23T16:35:46.327Z,13.06
2022-11-23T16:38:13.281Z,12.96
2022-11-23T16:40:41.048Z,12.87
2022-11-23T16:43:08.893Z,12.97
2022-11-23T16:45:39.193Z,12.98
2022-11-23T16:48:25.862Z,13.02
2022-11-23T16:50:56.969Z,13.05
2022-11-23T16:53:27.044Z,13.04
2022-11-23T16:55:55.129Z,13.03
2022-11-23T16:58:22.558Z,13.00
2022-11-23T17:00:49.788Z,12.99
2022-11-23T17:03:18.439Z,12.96
2022-11-23T17:05:45.609Z,13.10
2022-11-23T17:08:14.703Z,13.00
2022-11-23T17:10:45.544Z,12.78
2022-11-23T17:13:30.672Z,12.82
2022-11-23T17:15:57.349Z,12.91
2022-11-23T17:18:23.975Z,12.81
2022-11-23T17:20:50.604Z,12.90
2022-11-23T17:23:17.383Z,12.89
2022-11-23T17:25:44.373Z,12.95
2022-11-23T17:28:16.946Z,12.90
2022-11-23T17:30:43.894Z,12.85
2022-11-23T17:33:13.586Z,12.98
2022-11-23T17:35:40.974Z,12.94
2022-11-23T17:38:14.204Z,12.87
2022-11-23T17:40:41.304Z,12.99
2022-11-23T17:43:12.013Z,12.96
2022-11-23T17:45:39.105Z,13.00
2022-11-23T17:48:06.358Z,13.12
2022-11-23T17:50:33.043Z,13.15
2022-11-23T17:52:59.768Z,13.18
2022-11-23T17:55:26.503Z,13.25
2022-11-23T17:57:53.914Z,13.21
2022-11-23T18:00:24.234Z,13.19
2022-11-23T18:02:52.255Z,13.13
2022-11-23T18:05:21.834Z,13.24
2022-11-23T18:07:50.825Z,12.96
2022-11-23T18:10:18.166Z,13.10
2022-11-23T18:12:45.716Z,13.08
2022-11-23T18:15:13.065Z,13.05
2022-11-23T18:17:40.660Z,13.12
2022-11-23T18:20:08.480Z,13.14
2022-11-23T18:22:35.872Z,13.11
2022-11-23T18:25:02.664Z,13.12
2022-11-23T18:27:32.137Z,13.07
2022-11-23T18:29:58.839Z,13.03
2022-11-23T18:32:25.565Z,13.11
2022-11-23T18:34:52.326Z,13.16
2022-11-23T18:37:19.087Z,13.21
2022-11-23T18:39:46.302Z,13.10
2022-11-23T18:42:14.194Z,12.99
2022-11-23T18:44:40.800Z,13.00
2022-11-23T18:47:07.464Z,12.96
2022-11-23T18:49:34.346Z,12.95
2022-11-23T18:52:01.266Z,12.93
2022-11-23T18:54:27.992Z,12.86
2022-11-23T18:56:54.646Z,12.89
2022-11-23T19:02:13.421Z,12.87
2022-11-23T19:04:40.183Z,12.91
2022-11-23T19:07:06.969Z,12.88
2022-11-23T19:09:34.897Z,12.80
2022-11-23T19:12:01.988Z,12.81
2022-11-23T19:14:28.697Z,12.82
2022-11-23T19:16:55.383Z,12.74
2022-11-23T19:19:22.072Z,12.73
2022-11-23T19:21:48.857Z,12.55
2022-11-23T19:24:15.527Z,12.49
2022-11-23T19:26:42.183Z,12.58
2022-11-23T19:29:08.853Z,12.56
2022-11-23T19:31:35.718Z,12.45
2022-11-23T19:34:06.015Z,12.51
2022-11-23T19:36:36.436Z,12.55
2022-11-23T19:39:06.497Z,12.63
2022-11-23T19:41:33.270Z,12.57
2022-11-23T19:44:01.152Z,12.51
2022-11-23T19:46:29.832Z,12.38
2022-11-23T19:48:57.709Z,12.40
2022-11-23T19:51:25.968Z,12.39
2022-11-23T19:53:52.724Z,12.28
2022-11-23T19:56:23.538Z,12.30
2022-11-23T19:58:55.324Z,12.19
2022-11-23T20:01:24.266Z,12.19
2022-11-23T20:03:53.528Z,12.10
2022-11-23T20:06:26.330Z,12.12
2022-11-23T20:09:01.361Z,12.04
2022-11-23T20:11:30.218Z,12.03
2022-11-23T20:13:57.681Z,11.88
2022-11-23T20:16:26.066Z,11.92
2022-11-23T20:19:01.445Z,11.94
2022-11-23T20:21:29.412Z,11.89
2022-11-23T20:27:02.453Z,11.88
2022-11-23T20:29:29.195Z,11.83
2022-11-23T20:31:55.953Z,11.65
2022-11-23T20:34:26.117Z,11.74
2022-11-23T20:36:53.059Z,11.60
2022-11-23T20:39:19.811Z,11.54
2022-11-23T20:41:49.493Z,11.49
2022-11-23T20:44:16.238Z,11.39
2022-11-23T20:49:30.520Z,11.36
2022-11-23T20:51:57.615Z,11.37
2022-11-23T20:54:24.240Z,11.46
2022-11-23T20:56:50.991Z,11.36
2022-11-23T20:59:17.718Z,11.33
2022-11-23T21:01:44.441Z,11.26
2022-11-23T21:04:11.328Z,11.20
2022-11-23T21:06:39.883Z,11.26
2022-11-23T21:09:09.062Z,11.24
2022-11-23T21:11:54.863Z,11.19
2022-11-23T21:14:27.989Z,11.11
2022-11-23T21:16:59.573Z,10.98
2022-11-23T21:19:27.423Z,11.00
2022-11-23T21:21:54.926Z,11.02
2022-11-23T21:24:21.693Z,10.98
2022-11-23T21:26:48.699Z,11.04
2022-11-23T21:29:19.043Z,10.97
2022-11-23T21:31:47.608Z,11.03
2022-11-23T21:34:20.187Z,10.90
2022-11-23T21:36:47.556Z,10.96
2022-11-23T21:39:14.907Z,10.97
2022-11-23T21:41:42.362Z,10.94
2022-11-23T21:44:09.775Z,10.86
2022-11-23T21:46:38.351Z,10.81
2022-11-23T21:49:08.817Z,10.83
2022-11-23T21:51:38.258Z,10.86
2022-11-23T21:54:07.279Z,10.81
2022-11-23T21:56:34.292Z,10.71
2022-11-23T21:59:01.162Z,10.72
2022-11-23T22:01:30.588Z,10.81
2022-11-23T22:04:01.032Z,10.84
2022-11-23T22:06:28.401Z,10.79
2022-11-23T22:08:56.647Z,10.71
2022-11-23T22:11:26.233Z,10.75
2022-11-23T22:13:56.279Z,10.73
2022-11-23T22:16:28.613Z,10.72
2022-11-23T22:18:56.484Z,10.73
2022-11-23T22:21:25.316Z,10.72
2022-11-23T22:23:52.341Z,10.72
2022-11-23T22:26:20.631Z,10.72
2022-11-23T22:28:49.015Z,10.75
2022-11-23T22:31:18.439Z,10.76
2022-11-23T22:33:46.684Z,10.81
2022-11-23T22:36:18.514Z,10.86
2022-11-23T22:38:45.851Z,10.75
2022-11-23T22:41:17.754Z,10.70
2022-11-23T22:43:44.680Z,10.69
2022-11-23T22:46:14.449Z,10.80
2022-11-23T22:48:43.208Z,10.92
2022-11-23T22:51:15.438Z,10.85
2022-11-23T22:53:44.526Z,10.94
2022-11-23T22:56:17.405Z,10.99
2022-11-23T22:58:45.389Z,11.02
2022-11-23T23:01:18.330Z,11.02
2022-11-23T23:03:45.645Z,11.08
2022-11-23T23:06:18.946Z,11.14
2022-11-23T23:08:46.846Z,11.11
2022-11-23T23:11:14.743Z,11.19
2022-11-23T23:13:42.238Z,11.08
2022-11-23T23:16:11.973Z,11.14
2022-11-23T23:18:39.638Z,10.63
2022-11-23T23:21:14.923Z,10.51
2022-11-23T23:23:52.888Z,10.77
2022-11-23T23:26:22.367Z,10.80
2022-11-23T23:28:49.413Z,10.84
2022-11-23T23:31:17.093Z,10.87
2022-11-23T23:33:45.141Z,10.79
2022-11-23T23:36:11.762Z,10.60
2022-11-23T23:38:38.705Z,10.69
2022-11-23T23:41:07.188Z,10.51
2022-11-23T23:43:34.604Z,10.40
2022-11-23T23:46:03.234Z,10.24
2022-11-23T23:48:35.282Z,10.23
2022-11-23T23:51:09.555Z,10.22
2022-11-23T23:53:36.959Z,10.17
2022-11-23T23:56:12.202Z,10.19
2022-11-23T23:58:39.092Z,10.38
